Time;durP1;ratioP1;P1;durP2;ratioP2;P2;SDS_P1;SDS_P2;PMS_P1;PMS_P2;Temp;Humidity;BMP_temperature;BMP_pressure;BME280_temperature;BME280_humidity;BME280_pressure;Samples;Min_cycle;Max_cycle;Signal;HPM_P1;HPM_P2
2023/06/03 00:03:04;;;;;;;;;;;;;;;;;;5111969;27;19916;-64
2023/06/03 00:05:30;;;;;;;;;;;;;;;;;;5111386;28;20003;-63
2023/06/03 00:07:56;;;;;;;;;;;;;;;;;;5111605;28;19908;-63
2023/06/03 00:11:52;;;;;;;;;;;;;;;;;;5111815;27;19916;-63
2023/06/03 00:14:17;;;;;;;;;;;;;;;;;;5111339;28;19947;-65
2023/06/03 00:16:45;;;;;;;;;;;;;;;;;;5110392;28;20284;-63
2023/06/03 00:20:36;;;;;;;;;;;;;;;;;;5091278;27;19919;-64
2023/06/03 00:23:01;;;;;;;;;;;;;;;;;;5091371;28;19913;-63
2023/06/03 00:25:27;;;;;;;;;;;;;;;;;;5091333;28;19915;-63
2023/06/03 00:27:53;;;;;;;;;;;;;;;;;;5089646;28;19909;-63
2023/06/03 00:32:44;;;;;;;;;;;;;;;;;;5111936;27;19916;-63
2023/06/03 00:35:25;;;;;;;;;;;;;;;;;;5091153;28;19923;-64
2023/06/03 00:37:51;;;;;;;;;;;;;;;;;;5091462;28;19912;-64
2023/06/03 00:40:17;;;;;;;;;;;;;;;;;;5091302;28;20279;-64
2023/06/03 00:46:06;;;;;;;;;;;;;;;;;;5112400;27;20390;-63
2023/06/03 00:52:55;;;;;;;;;;;;;;;;;;5112247;27;19916;-62
2023/06/03 00:55:21;;;;;;;;;;;;;;;;;;5111342;28;19965;-65
2023/06/03 00:57:47;;;;;;;;;;;;;;;;;;5111937;28;19912;-63
2023/06/03 01:00:13;;;;;;;;;;;;;;;;;;5110349;28;19908;-63
2023/06/03 01:02:43;;;;;;;;;;;;;;;;;;5109931;28;19915;-63
2023/06/03 01:05:09;;;;;;;;;;;;;;;;;;5111592;28;19931;-63
2023/06/03 01:07:36;;;;;;;;;;;;;;;;;;5111933;28;20375;-63
2023/06/03 01:11:09;;;;;;;;;;;;;;;;;;5152913;27;20469;-63
2023/06/03 01:13:35;;;;;;;;;;;;;;;;;;5153173;27;19912;-63
2023/06/03 01:17:35;;;;;;;;;;;;;;;;;;5111359;27;19916;-63
2023/06/03 01:22:36;;;;;;;;;;;;;;;;;;5112217;27;20401;-63
2023/06/03 01:25:20;;;;;;;;;;;;;;;;;;5092142;28;19912;-63
2023/06/03 01:27:48;;;;;;;;;;;;;;;;;;5091403;28;19912;-63
2023/06/03 01:31:15;;;;;;;;;;;;;;;;;;5091270;27;19919;-63
2023/06/03 01:33:40;;;;;;;;;;;;;;;;;;5090080;28;19912;-63
2023/06/03 01:39:44;;;;;;;;;;;;;;;;;;5112230;27;20307;-63
2023/06/03 01:42:58;;;;;;;;;;;;;;;;;;5112578;27;19938;-63
2023/06/03 01:45:39;;;;;;;;;;;;;;;;;;5111534;27;19916;-63
2023/06/03 01:49:00;;;;;;;;;;;;;;;;;;5112396;27;20406;-62
2023/06/03 01:54:10;;;;;;;;;;;;;;;;;;5111862;27;19916;-65
2023/06/03 01:56:36;;;;;;;;;;;;;;;;;;5111825;28;20010;-65
2023/06/03 01:59:34;;;;;;;;;;;;;;;;;;5111538;27;20398;-63
2023/06/03 02:02:00;;;;;;;;;;;;;;;;;;5111769;28;19937;-63
2023/06/03 02:07:34;;;;;;;;;;;;;;;;;;5112423;27;19916;-65
2023/06/03 02:11:50;;;;;;;;;;;;;;;;;;5152785;27;19976;-63
2023/06/03 02:14:16;;;;;;;;;;;;;;;;;;5152965;27;19981;-63
2023/06/03 02:16:42;;;;;;;;;;;;;;;;;;5134389;27;19915;-64
2023/06/03 02:19:10;;;;;;;;;;;;;;;;;;5152969;27;19914;-65
2023/06/03 02:21:38;;;;;;;;;;;;;;;;;;5134705;27;20281;-64
2023/06/03 02:27:01;;;;;;;;;;;;;;;;;;5111616;27;19938;-65
2023/06/03 02:29:45;;;;;;;;;;;;;;;;;;5112169;27;19926;-63
2023/06/03 02:32:11;;;;;;;;;;;;;;;;;;5111731;28;19916;-63
2023/06/03 02:37:05;;;;;;;;;;;;;;;;;;5092274;27;19912;-63
2023/06/03 02:42:00;;;;;;;;;;;;;;;;;;5071001;28;19919;-63
2023/06/03 02:45:35;;;;;;;;;;;;;;;;;;5112359;27;20275;-65
2023/06/03 02:49:02;;;;;;;;;;;;;;;;;;5111405;27;19912;-63
2023/06/03 02:52:45;;;;;;;;;;;;;;;;;;5112261;27;19916;-63
2023/06/03 02:55:11;;;;;;;;;;;;;;;;;;5111430;28;20014;-63
2023/06/03 02:57:36;;;;;;;;;;;;;;;;;;5111740;28;19908;-63
2023/06/03 03:00:09;;;;;;;;;;;;;;;;;;5111826;28;19908;-63
2023/06/03 03:02:37;;;;;;;;;;;;;;;;;;5111485;28;19912;-63
2023/06/03 03:05:02;;;;;;;;;;;;;;;;;;5111955;28;19908;-63
2023/06/03 03:07:32;;;;;;;;;;;;;;;;;;5111577;28;20325;-63
2023/06/03 03:09:58;;;;;;;;;;;;;;;;;;5092804;28;19908;-63
2023/06/03 03:12:37;;;;;;;;;;;;;;;;;;5112370;27;19916;-65
2023/06/03 03:15:03;;;;;;;;;;;;;;;;;;5111792;28;20344;-62
2023/06/03 03:19:40;;;;;;;;;;;;;;;;;;5051536;28;20328;-62
2023/06/03 03:22:06;;;;;;;;;;;;;;;;;;5051236;28;20011;-62
2023/06/03 03:26:53;;;;;;;;;;;;;;;;;;5112069;27;19925;-63
2023/06/03 03:31:20;;;;;;;;;;;;;;;;;;5091149;27;19916;-65
2023/06/03 03:34:08;;;;;;;;;;;;;;;;;;5112431;27;19923;-64
2023/06/03 03:40:28;;;;;;;;;;;;;;;;;;5153463;27;20010;-63
2023/06/03 03:45:43;;;;;;;;;;;;;;;;;;5112560;27;20380;-62
2023/06/03 03:48:09;;;;;;;;;;;;;;;;;;5111901;28;19998;-62
2023/06/03 03:50:35;;;;;;;;;;;;;;;;;;5111314;28;19954;-62
2023/06/03 03:53:01;;;;;;;;;;;;;;;;;;5111690;28;19947;-63
2023/06/03 03:58:55;;;;;;;;;;;;;;;;;;5091318;27;19912;-63
2023/06/03 04:01:23;;;;;;;;;;;;;;;;;;5091383;28;19913;-63
2023/06/03 04:04:43;;;;;;;;;;;;;;;;;;5111889;27;19927;-65
2023/06/03 04:07:11;;;;;;;;;;;;;;;;;;5112078;28;19954;-65
2023/06/03 04:09:37;;;;;;;;;;;;;;;;;;5111652;28;19969;-63
2023/06/03 04:16:26;;;;;;;;;;;;;;;;;;5092246;27;19913;-64
2023/06/03 04:18:52;;;;;;;;;;;;;;;;;;5090996;28;20007;-63
2023/06/03 04:21:18;;;;;;;;;;;;;;;;;;5091413;28;19908;-63
2023/06/03 04:23:45;;;;;;;;;;;;;;;;;;5091631;28;19908;-63
2023/06/03 04:26:11;;;;;;;;;;;;;;;;;;5090822;28;19909;-63
2023/06/03 04:28:36;;;;;;;;;;;;;;;;;;5091192;28;19916;-63
2023/06/03 04:31:02;;;;;;;;;;;;;;;;;;5091226;28;19954;-63
2023/06/03 04:33:28;;;;;;;;;;;;;;;;;;5090714;28;20007;-63
2023/06/03 04:37:34;;;;;;;;;;;;;;;;;;5092078;27;19922;-63
2023/06/03 04:44:13;;;;;;;;;;;;;;;;;;5112311;27;19922;-63
2023/06/03 04:46:39;;;;;;;;;;;;;;;;;;5111327;28;20015;-63
2023/06/03 04:49:08;;;;;;;;;;;;;;;;;;5111757;28;19908;-64
2023/06/03 04:51:34;;;;;;;;;;;;;;;;;;5111720;28;19908;-64
2023/06/03 04:55:18;;;;;;;;;;;;;;;;;;5111641;27;19922;-63
2023/06/03 05:00:58;;;;;;;;;;;;;;;;;;5111846;27;19916;-65
2023/06/03 05:03:25;;;;;;;;;;;;;;;;;;5111861;28;19912;-65
2023/06/03 05:05:52;;;;;;;;;;;;;;;;;;5111903;28;20339;-63
2023/06/03 05:14:56;;;;;;;;;;;;;;;;;;5111719;27;19916;-63
2023/06/03 05:17:22;;;;;;;;;;;;;;;;;;5111752;28;20003;-63
2023/06/03 05:24:00;;;;;;;;;;;;;;;;;;5091169;27;19950;-65
2023/06/03 05:26:26;;;;;;;;;;;;;;;;;;5091925;28;19995;-63
2023/06/03 05:28:52;;;;;;;;;;;;;;;;;;5091055;28;19908;-63
2023/06/03 05:31:18;;;;;;;;;;;;;;;;;;5091298;28;19919;-63
2023/06/03 05:33:44;;;;;;;;;;;;;;;;;;5091214;28;19908;-63
2023/06/03 05:37:39;;;;;;;;;;;;;;;;;;5091299;27;19912;-64
2023/06/03 05:43:52;;;;;;;;;;;;;;;;;;5111756;27;20398;-64
2023/06/03 05:46:18;;;;;;;;;;;;;;;;;;5112388;28;20011;-64
2023/06/03 05:48:44;;;;;;;;;;;;;;;;;;5111671;28;20322;-64
2023/06/03 05:51:10;;;;;;;;;;;;;;;;;;5111344;28;19908;-64
2023/06/03 05:55:17;;;;;;;;;;;;;;;;;;5112040;27;19916;-63
2023/06/03 05:57:56;;;;;;;;;;;;;;;;;;5111440;27;19916;-63
2023/06/03 06:00:21;;;;;;;;;;;;;;;;;;5111797;28;20394;-65
2023/06/03 06:02:47;;;;;;;;;;;;;;;;;;5111604;28;19915;-64
2023/06/03 06:10:47;;;;;;;;;;;;;;;;;;5092290;27;19916;-65
2023/06/03 06:14:40;;;;;;;;;;;;;;;;;;5091935;27;19913;-63
2023/06/03 06:17:06;;;;;;;;;;;;;;;;;;5091341;28;19995;-63
2023/06/03 06:19:33;;;;;;;;;;;;;;;;;;5091004;28;20420;-63
2023/06/03 06:21:58;;;;;;;;;;;;;;;;;;5090036;28;20284;-64
2023/06/03 06:24:24;;;;;;;;;;;;;;;;;;5091430;28;19915;-63
2023/06/03 06:26:50;;;;;;;;;;;;;;;;;;5090741;28;19913;-65
2023/06/03 06:29:16;;;;;;;;;;;;;;;;;;5091091;28;20347;-64
2023/06/03 06:31:44;;;;;;;;;;;;;;;;;;5091406;28;19913;-64
2023/06/03 06:34:10;;;;;;;;;;;;;;;;;;5090679;28;19917;-64
2023/06/03 06:36:36;;;;;;;;;;;;;;;;;;5091048;28;19916;-65
2023/06/03 06:39:02;;;;;;;;;;;;;;;;;;5089708;28;20011;-64
2023/06/03 06:41:27;;;;;;;;;;;;;;;;;;5089408;28;19908;-64
2023/06/03 06:43:53;;;;;;;;;;;;;;;;;;5091155;28;19940;-64
2023/06/03 06:46:19;;;;;;;;;;;;;;;;;;5089243;28;19909;-64
2023/06/03 06:48:45;;;;;;;;;;;;;;;;;;5089544;28;19909;-64
2023/06/03 06:51:11;;;;;;;;;;;;;;;;;;5089439;28;19915;-64
2023/06/03 06:53:37;;;;;;;;;;;;;;;;;;5090253;28;20012;-64
2023/06/03 06:56:04;;;;;;;;;;;;;;;;;;5090692;28;19973;-64
2023/06/03 07:02:14;;;;;;;;;;;;;;;;;;5111355;27;20383;-63
2023/06/03 07:04:40;;;;;;;;;;;;;;;;;;5112365;28;19919;-63
2023/06/03 07:07:06;;;;;;;;;;;;;;;;;;5111681;28;19908;-63
2023/06/03 07:09:32;;;;;;;;;;;;;;;;;;5111244;28;19908;-63
2023/06/03 07:13:24;;;;;;;;;;;;;;;;;;5112295;27;19916;-65
2023/06/03 07:15:50;;;;;;;;;;;;;;;;;;5111394;28;19955;-63
2023/06/03 07:18:16;;;;;;;;;;;;;;;;;;5110321;28;19909;-64
2023/06/03 07:20:42;;;;;;;;;;;;;;;;;;5111630;28;20318;-64
2023/06/03 07:24:46;;;;;;;;;;;;;;;;;;5091614;28;19919;-63
2023/06/03 07:27:12;;;;;;;;;;;;;;;;;;5090140;28;19999;-65
2023/06/03 07:29:38;;;;;;;;;;;;;;;;;;5089649;28;19908;-63
2023/06/03 07:32:35;;;;;;;;;;;;;;;;;;5092077;27;19916;-65
2023/06/03 07:37:38;;;;;;;;;;;;;;;;;;5152966;27;19921;-63
2023/06/03 07:40:03;;;;;;;;;;;;;;;;;;5152997;27;19947;-65
2023/06/03 07:45:11;;;;;;;;;;;;;;;;;;5112177;27;20427;-63
2023/06/03 07:47:37;;;;;;;;;;;;;;;;;;5112160;28;20023;-63
2023/06/03 07:50:03;;;;;;;;;;;;;;;;;;5111659;28;20365;-63
2023/06/03 07:52:29;;;;;;;;;;;;;;;;;;5111621;28;20268;-64
2023/06/03 07:56:26;;;;;;;;;;;;;;;;;;5112044;27;19916;-63
2023/06/03 08:01:05;;;;;;;;;;;;;;;;;;5111793;27;19918;-64
2023/06/03 08:03:31;;;;;;;;;;;;;;;;;;5111236;28;20007;-64
2023/06/03 08:08:00;;;;;;;;;;;;;;;;;;5091777;27;19912;-63
2023/06/03 08:10:27;;;;;;;;;;;;;;;;;;5091371;28;19958;-63
2023/06/03 08:12:53;;;;;;;;;;;;;;;;;;5091306;28;19908;-63
2023/06/03 08:15:19;;;;;;;;;;;;;;;;;;5090053;28;19915;-64
2023/06/03 08:17:59;;;;;;;;;;;;;;;;;;5111883;27;19912;-63
2023/06/03 08:20:25;;;;;;;;;;;;;;;;;;5111626;28;20338;-65
2023/06/03 08:22:51;;;;;;;;;;;;;;;;;;5112210;28;19930;-63
2023/06/03 08:25:17;;;;;;;;;;;;;;;;;;5111305;28;19914;-65
2023/06/03 08:27:43;;;;;;;;;;;;;;;;;;5111555;28;19908;-65
2023/06/03 08:32:15;;;;;;;;;;;;;;;;;;5091412;27;20279;-63
2023/06/03 08:34:41;;;;;;;;;;;;;;;;;;5090143;28;20007;-63
2023/06/03 08:37:07;;;;;;;;;;;;;;;;;;5091202;28;19909;-64
2023/06/03 08:39:33;;;;;;;;;;;;;;;;;;5089554;28;19958;-63
2023/06/03 08:44:21;;;;;;;;;;;;;;;;;;5112580;27;20356;-64
2023/06/03 08:46:47;;;;;;;;;;;;;;;;;;5109998;28;19912;-64
2023/06/03 08:49:13;;;;;;;;;;;;;;;;;;5111715;28;20410;-63
2023/06/03 08:51:41;;;;;;;;;;;;;;;;;;5111960;28;19908;-64
2023/06/03 08:54:08;;;;;;;;;;;;;;;;;;5109828;28;20253;-64
2023/06/03 08:58:16;;;;;;;;;;;;;;;;;;5111812;27;20291;-63
2023/06/03 09:02:04;;;;;;;;;;;;;;;;;;5112155;27;19916;-64
2023/06/03 09:04:30;;;;;;;;;;;;;;;;;;5111743;28;19912;-64
2023/06/03 09:06:56;;;;;;;;;;;;;;;;;;5111337;28;19908;-64
2023/06/03 09:09:22;;;;;;;;;;;;;;;;;;5110374;28;20443;-64
2023/06/03 09:11:49;;;;;;;;;;;;;;;;;;5111520;28;20392;-64
2023/06/03 09:14:15;;;;;;;;;;;;;;;;;;5111452;28;19953;-64
2023/06/03 09:16:41;;;;;;;;;;;;;;;;;;5111456;28;19908;-64
2023/06/03 09:20:26;;;;;;;;;;;;;;;;;;5111877;27;19918;-64
2023/06/03 09:22:52;;;;;;;;;;;;;;;;;;5111472;28;19973;-64
2023/06/03 09:25:30;;;;;;;;;;;;;;;;;;5051225;28;19924;-63
2023/06/03 09:28:28;;;;;;;;;;;;;;;;;;5111405;27;19915;-65
2023/06/03 09:32:31;;;;;;;;;;;;;;;;;;5112485;27;19916;-66
2023/06/03 09:34:57;;;;;;;;;;;;;;;;;;5110025;28;19912;-63
2023/06/03 09:37:23;;;;;;;;;;;;;;;;;;5111743;28;19908;-64
2023/06/03 09:41:41;;;;;;;;;;;;;;;;;;5112184;27;20311;-64
2023/06/03 09:44:10;;;;;;;;;;;;;;;;;;5111353;28;20006;-64
2023/06/03 09:46:36;;;;;;;;;;;;;;;;;;5111621;28;19908;-64
2023/06/03 09:49:02;;;;;;;;;;;;;;;;;;5110002;28;19962;-64
2023/06/03 09:51:28;;;;;;;;;;;;;;;;;;5110239;28;19908;-64
2023/06/03 09:53:53;;;;;;;;;;;;;;;;;;5111515;28;19997;-63
2023/06/03 09:56:19;;;;;;;;;;;;;;;;;;5111068;28;19912;-64
2023/06/03 09:58:45;;;;;;;;;;;;;;;;;;5110076;28;19908;-63
2023/06/03 10:01:11;;;;;;;;;;;;;;;;;;5109976;28;19970;-63
2023/06/03 10:03:46;;;;;;;;;;;;;;;;;;5111688;27;19912;-65
2023/06/03 10:06:12;;;;;;;;;;;;;;;;;;5110405;28;19912;-63
2023/06/03 10:08:38;;;;;;;;;;;;;;;;;;5111677;28;20014;-65
2023/06/03 10:12:53;;;;;;;;;;;;;;;;;;5091614;28;19922;-64
2023/06/03 10:15:19;;;;;;;;;;;;;;;;;;5091305;28;20002;-64
2023/06/03 10:17:45;;;;;;;;;;;;;;;;;;5090813;28;19908;-64
2023/06/03 10:24:35;;;;;;;;;;;;;;;;;;5091384;27;19922;-63
2023/06/03 10:27:01;;;;;;;;;;;;;;;;;;5091237;28;20015;-63
2023/06/03 10:29:29;;;;;;;;;;;;;;;;;;5090120;28;19962;-63
2023/06/03 10:33:38;;;;;;;;;;;;;;;;;;5111694;27;20298;-63
2023/06/03 10:36:04;;;;;;;;;;;;;;;;;;5111944;28;19999;-64
2023/06/03 10:39:15;;;;;;;;;;;;;;;;;;5152838;27;19915;-63
2023/06/03 10:41:41;;;;;;;;;;;;;;;;;;5152906;27;19912;-63
2023/06/03 10:44:07;;;;;;;;;;;;;;;;;;5134343;27;20387;-64
2023/06/03 10:46:33;;;;;;;;;;;;;;;;;;5133848;27;20355;-64
2023/06/03 10:51:20;;;;;;;;;;;;;;;;;;5111670;27;19916;-64
2023/06/03 10:53:46;;;;;;;;;;;;;;;;;;5111610;28;20321;-63
2023/06/03 10:56:13;;;;;;;;;;;;;;;;;;5111883;28;19915;-63
2023/06/03 10:58:38;;;;;;;;;;;;;;;;;;5111667;28;19912;-64
2023/06/03 11:01:04;;;;;;;;;;;;;;;;;;5111226;28;19908;-64
2023/06/03 11:03:31;;;;;;;;;;;;;;;;;;5111471;28;19909;-64
2023/06/03 11:05:57;;;;;;;;;;;;;;;;;;5111450;28;19908;-64
2023/06/03 11:08:23;;;;;;;;;;;;;;;;;;5111053;28;19908;-64
2023/06/03 11:10:48;;;;;;;;;;;;;;;;;;5111293;28;19964;-64
2023/06/03 11:13:15;;;;;;;;;;;;;;;;;;5111277;28;19916;-64
2023/06/03 11:17:22;;;;;;;546.75;255.90;;;;;;;;;;5152481;27;20368;-63
2023/06/03 11:19:51;;;;;;;;;;;;;;;;;;5132271;28;20110;-63
2023/06/03 11:22:17;;;;;;;;;;;;;;;;;;5131942;28;19988;-64
2023/06/03 11:24:46;;;;;;;514.00;282.55;;;;;;;;;;5130999;28;20387;-63
2023/06/03 11:27:15;;;;;;;552.78;229.68;;;;;;;;;;5131807;28;20051;-64
2023/06/03 11:29:41;;;;;;;;;;;;;;;;;;5113088;28;20031;-64
2023/06/03 11:32:14;;;;;;;573.10;282.25;;;;;;;;;;5130251;28;20375;-64
2023/06/03 11:34:41;;;;;;;574.40;240.88;;;;;;;;;;5131217;28;20035;-65
2023/06/03 11:37:07;;;;;;;;;;;;;;;;;;5113451;28;20028;-65
2023/06/03 11:39:52;;;;;;;588.75;290.10;;;;;;;;;;5130095;28;20440;-65
2023/06/03 11:42:18;;;;;;;345.30;153.50;;;;;;;;;;5131385;28;20034;-64
2023/06/03 11:46:11;;;;;;;;;;;;;;;;;;5111975;27;20473;-63
2023/06/03 11:48:37;;;;;;;;;;;;;;;;;;5111263;28;19908;-64
2023/06/03 11:51:39;;;;;;;;;;;;;;;;;;5071714;28;19919;-63
2023/06/03 11:54:06;;;;;;;;;;;;;;;;;;5071174;28;19919;-65
2023/06/03 11:56:35;;;;;;;;;;;;;;;;;;5069469;28;19912;-66
2023/06/03 11:59:51;;;;;;;;;;;;;;;;;;5112580;27;20396;-64
2023/06/03 12:02:17;;;;;;;;;;;;;;;;;;5111855;28;19953;-64
2023/06/03 12:04:45;;;;;;;;;;;;;;;;;;5111288;28;19907;-63
2023/06/03 12:07:11;;;;;;;;;;;;;;;;;;5111671;28;20280;-64
2023/06/03 12:09:37;;;;;;;;;;;;;;;;;;5111159;28;19915;-63
2023/06/03 12:12:03;;;;;;;;;;;;;;;;;;5111491;28;19904;-64
2023/06/03 12:14:29;;;;;;;;;;;;;;;;;;5111810;28;19904;-65
2023/06/03 12:16:55;;;;;;;;;;;;;;;;;;5111051;28;20202;-65
2023/06/03 12:19:21;;;;;;;;;;;;;;;;;;5111354;28;19912;-65
2023/06/03 12:21:47;;;;;;;;;;;;;;;;;;5110116;28;19904;-65
2023/06/03 12:24:13;;;;;;;;;;;;;;;;;;5110824;28;19927;-65
2023/06/03 12:26:40;;;;;;;;;;;;;;;;;;5111270;28;19904;-65
2023/06/03 12:29:06;;;;;;;;;;;;;;;;;;5111165;28;20332;-65
2023/06/03 12:31:32;;;;;;;;;;;;;;;;;;5110811;28;19965;-65
2023/06/03 12:34:00;;;;;;;;;;;;;;;;;;5111278;28;19903;-63
2023/06/03 12:36:26;;;;;;;;;;;;;;;;;;5109717;28;19904;-64
2023/06/03 12:38:52;;;;;;;;;;;;;;;;;;5110472;28;19919;-64
2023/06/03 12:41:18;;;;;;;;;;;;;;;;;;5109780;28;19908;-64
2023/06/03 12:43:45;;;;;;;;;;;;;;;;;;5111022;28;19904;-64
2023/06/03 12:46:11;;;;;;;;;;;;;;;;;;5109189;28;19918;-64
2023/06/03 12:48:37;;;;;;;;;;;;;;;;;;5110909;28;20286;-65
2023/06/03 12:51:03;;;;;;;;;;;;;;;;;;5110818;28;19927;-66
2023/06/03 12:53:30;;;;;;;;;;;;;;;;;;5109197;28;20384;-65
2023/06/03 12:55:56;;;;;;;;;;;;;;;;;;5109541;28;19950;-65
2023/06/03 12:58:22;;;;;;;;;;;;;;;;;;5110527;28;19920;-65
2023/06/03 13:00:48;;;;;;;;;;;;;;;;;;5110241;28;20445;-65
2023/06/03 13:03:14;;;;;;;;;;;;;;;;;;5110867;28;19920;-64
2023/06/03 13:05:41;;;;;;;;;;;;;;;;;;5110585;28;20022;-65
2023/06/03 13:08:09;;;;;;;;;;;;;;;;;;5110203;28;19904;-64
2023/06/03 13:10:35;;;;;;;;;;;;;;;;;;5098878;28;19903;-65
2023/06/03 13:13:01;;;;;;;;;;;;;;;;;;5096354;28;19904;-64
2023/06/03 13:15:28;;;;;;;;;;;;;;;;;;5096757;28;19995;-64
2023/06/03 13:17:54;;;;;;;;;;;;;;;;;;5095474;28;20291;-64
2023/06/03 13:20:20;;;;;;;;;;;;;;;;;;5096289;28;19912;-64
2023/06/03 13:22:46;;;;;;;;;;;;;;;;;;5096743;28;19904;-64
2023/06/03 13:25:12;;;;;;;;;;;;;;;;;;5096781;28;20344;-64
2023/06/03 13:27:41;;;;;;;;;;;;;;;;;;5096394;28;19907;-64
2023/06/03 13:30:07;;;;;;;;;;;;;;;;;;5096793;28;19904;-64
2023/06/03 13:32:33;;;;;;;;;;;;;;;;;;5095202;28;20252;-64
2023/06/03 13:34:59;;;;;;;;;;;;;;;;;;5094707;28;19904;-65
2023/06/03 13:37:25;;;;;;;;;;;;;;;;;;5096289;28;19927;-65
2023/06/03 13:39:51;;;;;;;;;;;;;;;;;;5096336;28;20372;-65
2023/06/03 13:42:17;;;;;;;;;;;;;;;;;;5096112;28;20275;-65
2023/06/03 13:44:43;;;;;;;;;;;;;;;;;;5095226;28;19911;-65
2023/06/03 13:47:09;;;;;;;;;;;;;;;;;;5096293;28;19904;-65
2023/06/03 13:49:35;;;;;;;;;;;;;;;;;;5095731;28;19904;-65
2023/06/03 13:52:01;;;;;;;;;;;;;;;;;;5096056;28;19904;-65
2023/06/03 13:54:27;;;;;;;;;;;;;;;;;;5095967;28;19904;-65
2023/06/03 13:56:56;;;;;;;;;;;;;;;;;;5094171;28;19958;-65
2023/06/03 13:59:22;;;;;;;;;;;;;;;;;;5095751;28;19924;-65
2023/06/03 14:01:48;;;;;;;;;;;;;;;;;;5095897;28;19904;-65
2023/06/03 14:04:14;;;;;;;;;;;;;;;;;;5095412;28;19904;-65
2023/06/03 14:06:40;;;;;;;;;;;;;;;;;;5095776;28;19911;-64
2023/06/03 14:09:06;;;;;;;;;;;;;;;;;;5095766;28;19908;-64
2023/06/03 14:11:32;;;;;;;;;;;;;;;;;;5095328;28;19911;-64
2023/06/03 14:13:58;;;;;;;;;;;;;;;;;;5095818;28;19904;-64
2023/06/03 14:16:26;;;;;;;;;;;;;;;;;;5095442;28;19911;-64
2023/06/03 14:18:52;;;;;;;;;;;;;;;;;;5095663;28;19912;-65
2023/06/03 14:21:18;;;;;;;;;;;;;;;;;;5093276;28;19904;-65
2023/06/03 14:23:44;;;;;;;;;;;;;;;;;;5095200;28;19958;-65
2023/06/03 14:29:17;;;;;;;;;;;;;;;;;;5111784;27;19916;-65
2023/06/03 14:31:43;;;;;;;;;;;;;;;;;;5111363;28;19918;-63
2023/06/03 14:34:09;;;;;;;;;;;;;;;;;;5111652;28;19908;-64
2023/06/03 14:36:36;;;;;;;;;;;;;;;;;;5111601;28;19915;-64
2023/06/03 14:39:02;;;;;;;;;;;;;;;;;;5111163;28;19969;-64
2023/06/03 14:41:28;;;;;;;;;;;;;;;;;;5111582;28;20364;-64
2023/06/03 14:43:54;;;;;;;;;;;;;;;;;;5111505;28;20387;-64
2023/06/03 14:46:20;;;;;;;;;;;;;;;;;;5111241;28;20394;-64
2023/06/03 14:48:46;;;;;;;;;;;;;;;;;;5111349;28;19959;-64
2023/06/03 14:51:12;;;;;;;;;;;;;;;;;;5111298;28;19915;-64
2023/06/03 14:53:38;;;;;;;;;;;;;;;;;;5110957;28;19915;-64
2023/06/03 14:56:04;;;;;;;;;;;;;;;;;;5111289;28;19994;-64
2023/06/03 14:58:59;;;;;;;;;;;;;;;;;;5111426;27;19911;-66
2023/06/03 15:01:26;;;;;;;;;;;;;;;;;;5111864;28;20455;-65
2023/06/03 15:03:53;;;;;;;;;;;;;;;;;;5111741;28;20417;-65
2023/06/03 15:06:18;;;;;;;;;;;;;;;;;;5111527;28;19908;-65
2023/06/03 15:12:19;;;;;;;;;;;;;;;;;;5112564;27;19916;-64
2023/06/03 15:14:45;;;;;;;;;;;;;;;;;;5111445;28;19919;-64
2023/06/03 15:17:11;;;;;;;;;;;;;;;;;;5111707;28;19908;-64
2023/06/03 15:19:37;;;;;;;;;;;;;;;;;;5111803;28;19908;-64
2023/06/03 15:22:03;;;;;;;;;;;;;;;;;;5109851;28;19914;-64
2023/06/03 15:24:29;;;;;;;;;;;;;;;;;;5111582;28;19912;-64
2023/06/03 15:26:55;;;;;;;;;;;;;;;;;;5111380;28;20340;-64
2023/06/03 15:29:21;;;;;;;;;;;;;;;;;;5110192;28;20368;-64
2023/06/03 15:31:47;;;;;;;;;;;;;;;;;;5111300;28;19916;-64
2023/06/03 15:34:13;;;;;;;;;;;;;;;;;;5111325;28;19908;-64
2023/06/03 15:36:39;;;;;;;;;;;;;;;;;;5111789;28;19948;-65
2023/06/03 15:41:49;;;;;;;766.20;682.67;;;;;;;;;;5151089;27;20368;-64
2023/06/03 15:44:15;;;;;;;727.65;650.42;;;;;;;;;;5131796;28;20469;-63
2023/06/03 15:46:41;;;;;;;715.50;641.17;;;;;;;;;;5113281;28;20440;-63
2023/06/03 15:49:09;;;;;;;825.40;678.05;;;;;;;;;;5130360;28;20840;-63
2023/06/03 15:51:36;;;;;;;742.15;662.05;;;;;;;;;;5131538;28;20023;-63
2023/06/03 15:54:03;;;;;;;705.67;622.30;;;;;;;;;;5113134;28;20020;-63
2023/06/03 15:56:29;;;;;;;837.63;658.78;;;;;;;;;;5130070;28;20468;-64
2023/06/03 15:58:55;;;;;;;;;;;;;;;;;;5113586;28;20043;-64
2023/06/03 16:01:21;;;;;;;;;;;;;;;;;;5131864;28;19953;-64
2023/06/03 16:03:47;;;;;;;;;;;;;;;;;;5131500;28;19910;-64
2023/06/03 16:06:13;;;;;;;;;;;;;;;;;;5131892;28;19957;-64
2023/06/03 16:08:39;;;;;;;;;;;;;;;;;;5131765;28;20347;-64
2023/06/03 16:11:05;;;;;;;;;;;;;;;;;;5112998;28;20435;-64
2023/06/03 16:13:31;;;;;;;;;;;;;;;;;;5131626;28;19929;-66
2023/06/03 16:15:57;;;;;;;;;;;;;;;;;;5131393;28;19903;-66
2023/06/03 16:19:53;;;;;;;;;;;;;;;;;;5112123;27;19912;-63
2023/06/03 16:22:18;;;;;;;;;;;;;;;;;;5112081;28;19912;-63
2023/06/03 16:24:44;;;;;;;;;;;;;;;;;;5111275;28;19908;-65
2023/06/03 16:28:39;;;;;;;;;;;;;;;;;;5112225;27;20302;-65
2023/06/03 16:31:05;;;;;;;;;;;;;;;;;;5111368;28;20011;-63
2023/06/03 16:33:31;;;;;;;;;;;;;;;;;;5111698;28;19977;-63
2023/06/03 16:35:57;;;;;;;;;;;;;;;;;;5111607;28;19915;-63
2023/06/03 16:39:29;;;;;;;;;;;;;;;;;;5153523;27;19911;-64
2023/06/03 16:41:55;;;;;;;;;;;;;;;;;;5152892;27;19918;-64
2023/06/03 16:44:21;;;;;;;;;;;;;;;;;;5152602;27;20364;-63
2023/06/03 16:46:48;;;;;;;;;;;;;;;;;;5134263;27;19919;-65
2023/06/03 16:49:14;;;;;;;;;;;;;;;;;;5152801;27;19954;-65
2023/06/03 16:51:40;;;;;;;;;;;;;;;;;;5152406;27;19908;-66
2023/06/03 16:57:36;;;;;;;;;;;;;;;;;;5112536;27;19919;-66
2023/06/03 17:00:02;;;;;;;;;;;;;;;;;;5111280;28;20384;-63
2023/06/03 17:02:28;;;;;;;;;;;;;;;;;;5111653;28;19908;-63
2023/06/03 17:04:56;;;;;;;;;;;;;;;;;;5111654;28;19954;-63
2023/06/03 17:07:22;;;;;;;;;;;;;;;;;;5110206;28;19912;-64
2023/06/03 17:09:48;;;;;;;;;;;;;;;;;;5111436;28;19908;-64
2023/06/03 17:12:14;;;;;;;;;;;;;;;;;;5111139;28;19908;-65
2023/06/03 17:14:40;;;;;;;;;;;;;;;;;;5111479;28;19994;-65
2023/06/03 17:17:06;;;;;;;;;;;;;;;;;;5111333;28;19916;-65
2023/06/03 17:19:32;;;;;;;;;;;;;;;;;;5109729;28;19908;-65
2023/06/03 17:21:58;;;;;;;;;;;;;;;;;;5111335;28;19908;-64
2023/06/03 17:24:23;;;;;;;;;;;;;;;;;;5111323;28;20292;-64
2023/06/03 17:26:50;;;;;;;;;;;;;;;;;;5109382;28;19977;-64
2023/06/03 17:29:16;;;;;;;;;;;;;;;;;;5109861;28;20433;-64
2023/06/03 17:34:13;;;;;;;;;;;;;;;;;;5111752;27;20380;-64
2023/06/03 17:36:38;;;;;;;;;;;;;;;;;;5112364;28;19999;-65
2023/06/03 17:39:04;;;;;;;;;;;;;;;;;;5111756;28;19912;-65
2023/06/03 17:42:57;;;;;;;;;;;;;;;;;;5153424;27;20010;-65
2023/06/03 17:45:25;;;;;;;;;;;;;;;;;;5153519;27;20351;-65
2023/06/03 17:47:51;;;;;;;;;;;;;;;;;;5152275;27;19946;-64
2023/06/03 17:50:18;;;;;;;;;;;;;;;;;;5153063;27;19908;-64
2023/06/03 17:52:44;;;;;;;;;;;;;;;;;;5152807;27;19907;-64
2023/06/03 17:55:10;;;;;;;;;;;;;;;;;;5133751;27;19927;-64
2023/06/03 17:57:36;;;;;;;;;;;;;;;;;;5152760;27;19907;-64
2023/06/03 18:00:02;;;;;;;;;;;;;;;;;;5152594;27;19914;-64
2023/06/03 18:02:33;;;;;;;;;;;;;;;;;;5133589;27;20449;-64
2023/06/03 18:04:59;;;;;;;;;;;;;;;;;;5152695;27;19990;-64
2023/06/03 18:07:25;;;;;;;;;;;;;;;;;;5152505;27;19983;-64
2023/06/03 18:10:19;;;;;;;;;;;;;;;;;;5152728;27;19918;-64
2023/06/03 18:15:12;;;;;;;;;;;;;;;;;;5153382;27;20336;-65
2023/06/03 18:17:38;;;;;;;;;;;;;;;;;;5152353;27;19941;-65
2023/06/03 18:20:03;;;;;;;;;;;;;;;;;;5134277;27;19907;-65
2023/06/03 18:22:29;;;;;;;;;;;;;;;;;;5152768;27;19914;-65
2023/06/03 18:24:55;;;;;;;;;;;;;;;;;;5152585;27;19907;-64
2023/06/03 18:31:22;;;;;;;;;;;;;;;;;;5091152;28;19919;-65
2023/06/03 18:33:48;;;;;;;;;;;;;;;;;;5091366;28;19912;-65
2023/06/03 18:36:26;;;;;;;;;;;;;;;;;;5153437;27;20290;-65
2023/06/03 18:38:52;;;;;;;;;;;;;;;;;;5152426;27;19912;-66
2023/06/03 18:44:34;;;;;;;;;;;;;;;;;;5091171;27;19912;-65
2023/06/03 18:47:00;;;;;;;;;;;;;;;;;;5091472;28;19947;-65
2023/06/03 18:49:26;;;;;;;;;;;;;;;;;;5091283;28;19952;-65
2023/06/03 18:51:52;;;;;;;;;;;;;;;;;;5089699;28;20311;-65
2023/06/03 18:54:18;;;;;;;;;;;;;;;;;;5091309;28;19908;-65
2023/06/03 18:56:44;;;;;;;;;;;;;;;;;;5091195;28;20352;-65
2023/06/03 18:59:10;;;;;;;;;;;;;;;;;;5089416;28;19948;-65
2023/06/03 19:01:36;;;;;;;;;;;;;;;;;;5091040;28;20262;-63
2023/06/03 19:04:02;;;;;;;;;;;;;;;;;;5089621;28;19990;-63
2023/06/03 19:06:28;;;;;;;;;;;;;;;;;;5090626;28;19908;-63
2023/06/03 19:08:54;;;;;;;;;;;;;;;;;;5090939;28;19908;-63
2023/06/03 19:11:20;;;;;;;;;;;;;;;;;;5089475;28;19947;-64
2023/06/03 19:13:46;;;;;;;;;;;;;;;;;;5090422;28;19954;-64
2023/06/03 19:18:42;;;;;;;;;;;;;;;;;;5153482;27;20351;-63
2023/06/03 19:21:08;;;;;;;;;;;;;;;;;;5152529;27;19918;-63
2023/06/03 19:29:13;;;;;;;;;;;;;;;;;;5112209;27;19918;-65
2023/06/03 19:31:39;;;;;;;;;;;;;;;;;;5111730;28;19912;-65
2023/06/03 19:34:06;;;;;;;;;;;;;;;;;;5110067;28;19918;-65
2023/06/03 19:37:40;;;;;;;;;;;;;;;;;;5091913;27;19913;-63
2023/06/03 19:40:05;;;;;;;;;;;;;;;;;;5089581;28;20004;-66
2023/06/03 19:43:05;;;;;;;;;;;;;;;;;;5153604;27;19915;-65
2023/06/03 19:45:31;;;;;;;;;;;;;;;;;;5152943;27;19917;-65